createdAt,value
2022-10-14T00:00:22.397Z,17.17
2022-10-14T00:02:48.911Z,17.00
2022-10-14T00:05:15.363Z,16.67
2022-10-14T00:07:41.663Z,15.95
2022-10-14T00:10:08.051Z,16.17
2022-10-14T00:12:34.596Z,15.68
2022-10-14T00:15:00.905Z,15.05
2022-10-14T00:17:27.187Z,14.60
2022-10-14T00:19:53.453Z,15.50
2022-10-14T00:22:19.920Z,13.77
2022-10-14T00:24:46.192Z,16.10
2022-10-14T00:27:12.431Z,15.32
2022-10-14T00:29:38.730Z,13.77
2022-10-14T00:32:05.136Z,13.45
2022-10-14T00:34:31.353Z,11.93
2022-10-14T00:36:57.846Z,14.40
2022-10-14T00:39:24.121Z,13.05
2022-10-14T00:41:50.385Z,13.82
2022-10-14T00:44:19.779Z,12.40
2022-10-14T00:46:47.279Z,12.48
2022-10-14T00:49:15.557Z,17.20
2022-10-14T00:51:43.975Z,12.05
2022-10-14T00:54:11.464Z,12.50
2022-10-14T00:56:37.789Z,12.63
2022-10-14T00:59:04.791Z,15.00
2022-10-14T01:01:31.246Z,14.18
2022-10-14T01:03:57.571Z,11.02
2022-10-14T01:06:32.059Z,12.48
2022-10-14T01:09:09.429Z,11.05
2022-10-14T01:12:16.155Z,13.82
2022-10-14T01:14:50.333Z,11.00
2022-10-14T01:17:30.287Z,11.48
2022-10-14T01:19:59.692Z,10.82
2022-10-14T01:22:36.856Z,12.13
2022-10-14T01:25:06.207Z,10.93
2022-10-14T01:27:51.323Z,14.90
2022-10-14T01:30:19.420Z,11.10
2022-10-14T01:32:48.982Z,11.20
2022-10-14T01:35:44.776Z,9.85
2022-10-14T01:38:17.171Z,10.70
2022-10-14T01:40:55.400Z,11.40
2022-10-14T01:43:23.293Z,9.10
2022-10-14T01:45:50.258Z,11.73
2022-10-14T01:48:18.000Z,11.02
2022-10-14T01:50:46.083Z,10.77
2022-10-14T01:53:16.838Z,9.57
2022-10-14T01:55:44.379Z,10.05
2022-10-14T01:58:12.143Z,11.30
2022-10-14T02:00:38.410Z,9.57
2022-10-14T02:03:04.676Z,11.25
2022-10-14T02:05:37.032Z,10.40
2022-10-14T02:08:21.757Z,9.50
2022-10-14T02:10:48.011Z,8.63
2022-10-14T02:13:20.492Z,7.85
2022-10-14T02:15:57.602Z,9.23
2022-10-14T02:18:26.611Z,8.38
2022-10-14T02:21:05.023Z,10.38
2022-10-14T02:23:34.012Z,9.15
2022-10-14T02:26:01.358Z,9.98
2022-10-14T02:28:29.040Z,9.88
2022-10-14T02:31:00.232Z,9.35
2022-10-14T02:33:28.583Z,11.23
2022-10-14T02:35:55.946Z,8.73
2022-10-14T02:38:22.372Z,10.27
2022-10-14T02:40:49.797Z,10.00
2022-10-14T02:43:16.629Z,8.55
2022-10-14T02:45:43.923Z,8.52
2022-10-14T02:48:11.518Z,9.45
2022-10-14T02:50:37.868Z,8.13
2022-10-14T02:53:04.161Z,8.70
2022-10-14T02:55:30.408Z,8.85
2022-10-14T02:57:56.649Z,8.60
2022-10-14T03:00:22.919Z,7.47
2022-10-14T03:02:49.147Z,8.48
2022-10-14T03:05:15.460Z,8.90
2022-10-14T03:07:41.699Z,7.10
2022-10-14T03:10:08.205Z,9.75
2022-10-14T03:12:34.435Z,8.55
2022-10-14T03:15:00.673Z,9.77
2022-10-14T03:17:26.952Z,9.00
2022-10-14T03:19:53.210Z,7.50
2022-10-14T03:22:19.828Z,8.02
2022-10-14T03:24:46.455Z,8.48
2022-10-14T03:27:12.700Z,8.20
2022-10-14T03:29:38.942Z,6.80
2022-10-14T03:32:05.246Z,6.85
2022-10-14T03:34:31.482Z,6.93
2022-10-14T03:36:57.742Z,7.93
2022-10-14T03:39:23.992Z,8.70
2022-10-14T03:41:50.306Z,7.13
2022-10-14T03:44:16.671Z,6.32
2022-10-14T03:46:42.908Z,6.93
2022-10-14T03:49:09.137Z,5.72
2022-10-14T03:51:35.514Z,7.20
2022-10-14T03:54:01.769Z,7.15
2022-10-14T03:56:28.046Z,5.95
2022-10-14T03:58:54.593Z,5.47
2022-10-14T04:01:20.973Z,6.15
2022-10-14T04:03:47.335Z,6.40
2022-10-14T04:06:16.556Z,7.07
2022-10-14T04:08:43.585Z,8.02
2022-10-14T04:11:10.366Z,5.95
2022-10-14T04:13:37.060Z,6.85
2022-10-14T04:16:07.153Z,6.80
2022-10-14T04:18:34.089Z,6.97
2022-10-14T04:21:01.508Z,6.28
2022-10-14T04:23:27.793Z,5.50
2022-10-14T04:25:54.058Z,6.15
2022-10-14T04:28:20.513Z,6.93
2022-10-14T04:30:46.820Z,5.63
2022-10-14T04:33:13.145Z,6.25
2022-10-14T04:35:39.408Z,5.70
2022-10-14T04:38:05.712Z,5.65
2022-10-14T04:40:32.234Z,5.50
2022-10-14T04:42:59.110Z,6.20
2022-10-14T04:45:25.795Z,7.05
2022-10-14T04:47:52.662Z,8.20
2022-10-14T04:50:19.797Z,7.03
2022-10-14T04:52:46.172Z,5.97
2022-10-14T04:55:12.416Z,7.35
2022-10-14T04:57:40.373Z,7.57
2022-10-14T05:00:07.166Z,7.60
2022-10-14T05:02:33.422Z,8.52
2022-10-14T05:04:59.647Z,9.57
2022-10-14T05:07:25.878Z,9.27
2022-10-14T05:09:56.184Z,7.75
2022-10-14T05:12:23.381Z,5.63
2022-10-14T05:14:49.893Z,6.32
2022-10-14T05:17:16.192Z,9.68
2022-10-14T05:19:42.446Z,8.50
2022-10-14T05:22:08.673Z,7.28
2022-10-14T05:24:34.953Z,8.18
2022-10-14T05:27:01.190Z,6.85
2022-10-14T05:29:27.424Z,7.85
2022-10-14T05:31:53.692Z,6.32
2022-10-14T05:34:19.992Z,6.28
2022-10-14T05:36:46.390Z,9.50
2022-10-14T05:39:12.805Z,6.82
2022-10-14T05:41:39.297Z,6.63
2022-10-14T05:44:05.660Z,6.47
2022-10-14T05:46:31.920Z,7.43
2022-10-14T05:49:00.193Z,7.40
2022-10-14T05:51:26.463Z,6.97
2022-10-14T05:53:53.155Z,7.05
2022-10-14T05:56:19.452Z,6.68
2022-10-14T05:58:45.790Z,5.68
2022-10-14T06:01:13.400Z,6.53
2022-10-14T06:03:39.655Z,7.25
2022-10-14T06:06:06.067Z,5.15
2022-10-14T06:08:32.333Z,7.47
2022-10-14T06:11:02.718Z,5.32
2022-10-14T06:13:29.011Z,8.18
2022-10-14T06:15:55.228Z,5.72
2022-10-14T06:18:21.578Z,5.55
2022-10-14T06:20:54.476Z,5.00
2022-10-14T06:23:20.914Z,4.78
2022-10-14T06:25:47.195Z,4.38
2022-10-14T06:28:13.437Z,5.75
2022-10-14T06:30:39.704Z,4.18
2022-10-14T06:33:05.948Z,4.65
2022-10-14T06:35:32.337Z,5.90
2022-10-14T06:37:59.086Z,4.82
2022-10-14T06:40:25.390Z,4.50
2022-10-14T06:42:53.501Z,4.45
2022-10-14T06:45:19.858Z,4.75
2022-10-14T06:47:46.164Z,5.85
2022-10-14T06:50:12.445Z,7.60
2022-10-14T06:52:38.698Z,4.53
2022-10-14T06:55:05.305Z,3.83
2022-10-14T06:57:31.568Z,5.50
2022-10-14T06:59:58.987Z,3.60
2022-10-14T07:02:25.864Z,4.07
2022-10-14T07:04:52.256Z,3.92
2022-10-14T07:07:18.548Z,3.92
2022-10-14T07:09:44.756Z,4.20
2022-10-14T07:12:10.963Z,5.68
2022-10-14T07:14:37.256Z,3.40
2022-10-14T07:17:03.865Z,3.85
2022-10-14T07:19:30.194Z,8.98
2022-10-14T07:21:56.437Z,2.90
2022-10-14T07:24:25.096Z,4.43
2022-10-14T07:26:51.365Z,4.10
2022-10-14T07:29:17.715Z,3.40
2022-10-14T07:31:43.954Z,3.05
2022-10-14T07:34:10.210Z,3.63
2022-10-14T07:36:36.529Z,2.85
2022-10-14T07:39:02.974Z,4.28
2022-10-14T07:41:29.276Z,3.35
2022-10-14T07:44:03.123Z,4.38
2022-10-14T07:46:32.245Z,3.45
2022-10-14T07:48:59.438Z,3.47
2022-10-14T07:51:26.411Z,5.20
2022-10-14T07:53:53.324Z,3.33
2022-10-14T07:56:20.065Z,3.00
2022-10-14T07:58:46.609Z,3.33
2022-10-14T08:01:15.264Z,2.95
2022-10-14T08:03:42.475Z,3.58
2022-10-14T08:06:09.258Z,3.50
2022-10-14T08:08:35.887Z,4.35
2022-10-14T08:11:08.013Z,4.13
2022-10-14T08:13:34.988Z,3.13
2022-10-14T08:16:01.676Z,3.15
2022-10-14T08:18:28.017Z,2.58
2022-10-14T08:20:54.405Z,2.85
2022-10-14T08:23:20.675Z,3.80
2022-10-14T08:25:47.947Z,5.32
2022-10-14T08:28:14.339Z,4.65
2022-10-14T08:30:40.921Z,4.70
2022-10-14T08:33:07.229Z,3.80
2022-10-14T08:35:33.712Z,3.85
2022-10-14T08:38:01.063Z,3.90
2022-10-14T08:40:33.461Z,3.60
2022-10-14T08:43:01.663Z,5.53
2022-10-14T08:45:37.395Z,5.15
2022-10-14T08:48:13.112Z,3.75
2022-10-14T08:51:03.324Z,4.30
2022-10-14T08:53:33.007Z,8.27
2022-10-14T08:56:00.850Z,5.07
2022-10-14T08:58:32.223Z,5.53
2022-10-14T09:00:59.848Z,3.45
2022-10-14T09:03:33.091Z,6.57
2022-10-14T09:06:01.257Z,4.35
2022-10-14T09:08:33.881Z,6.63
2022-10-14T09:11:00.162Z,7.32
2022-10-14T09:13:32.324Z,6.00
2022-10-14T09:16:02.732Z,4.55
2022-10-14T09:18:35.305Z,7.38
2022-10-14T09:21:02.636Z,7.85
2022-10-14T09:23:28.944Z,5.30
2022-10-14T09:25:59.631Z,7.03
2022-10-14T09:28:31.838Z,5.40
2022-10-14T09:30:58.184Z,5.38
2022-10-14T09:33:27.096Z,4.25
2022-10-14T09:35:53.401Z,5.00
2022-10-14T09:38:20.156Z,4.68
2022-10-14T09:40:51.364Z,4.95
2022-10-14T09:43:19.076Z,4.55
2022-10-14T09:45:48.385Z,4.93
2022-10-14T09:48:16.964Z,4.50
2022-10-14T09:50:48.316Z,4.72
2022-10-14T09:53:31.726Z,3.42
2022-10-14T09:56:02.797Z,6.03
2022-10-14T09:58:31.704Z,5.28
2022-10-14T10:00:59.207Z,3.63
2022-10-14T10:03:32.995Z,2.90
2022-10-14T10:06:01.312Z,4.60
2022-10-14T10:08:27.627Z,3.58
2022-10-14T10:11:03.523Z,5.70
2022-10-14T10:13:34.378Z,3.13
2022-10-14T10:16:02.925Z,4.65
2022-10-14T10:18:29.272Z,4.30
2022-10-14T10:21:15.382Z,3.72
2022-10-14T10:23:50.628Z,3.67
2022-10-14T10:26:18.532Z,5.00
2022-10-14T10:28:45.946Z,2.80
2022-10-14T10:31:26.190Z,4.70
2022-10-14T10:34:02.971Z,4.75
2022-10-14T10:36:31.411Z,3.00
2022-10-14T10:39:01.798Z,4.88
2022-10-14T10:41:51.305Z,3.33
2022-10-14T10:44:25.625Z,4.45
2022-10-14T10:47:12.602Z,3.72
2022-10-14T10:49:57.774Z,3.45
2022-10-14T10:52:24.499Z,4.45
2022-10-14T10:54:57.184Z,4.38
2022-10-14T10:57:24.903Z,3.33
2022-10-14T10:59:56.340Z,3.95
2022-10-14T11:02:44.151Z,3.97
2022-10-14T11:05:13.495Z,4.57
2022-10-14T11:08:17.724Z,3.63
2022-10-14T11:11:21.896Z,3.55
2022-10-14T11:13:55.532Z,2.78
2022-10-14T11:16:26.589Z,4.13
2022-10-14T11:18:52.838Z,3.55
2022-10-14T11:21:37.703Z,4.03
2022-10-14T11:24:20.527Z,3.65
2022-10-14T11:26:55.888Z,3.30
2022-10-14T11:29:35.416Z,3.47
2022-10-14T11:32:07.844Z,4.70
2022-10-14T11:34:48.701Z,3.80
2022-10-14T11:37:15.580Z,3.60
2022-10-14T11:39:53.776Z,4.07
2022-10-14T11:42:20.845Z,3.28
2022-10-14T11:44:51.156Z,3.10
2022-10-14T11:47:24.050Z,2.83
2022-10-14T11:49:55.658Z,4.65
2022-10-14T11:52:27.735Z,4.05
2022-10-14T11:54:56.500Z,4.60
2022-10-14T11:57:30.193Z,3.85
2022-10-14T12:00:00.062Z,3.83
2022-10-14T12:02:59.011Z,3.50
2022-10-14T12:05:37.166Z,4.35
2022-10-14T12:08:09.535Z,4.25
2022-10-14T12:10:38.513Z,3.33
2022-10-14T12:13:10.640Z,4.47
2022-10-14T12:15:38.754Z,3.25
2022-10-14T12:18:05.308Z,3.88
2022-10-14T12:20:37.690Z,7.13
2022-10-14T12:23:06.839Z,4.18
2022-10-14T12:25:41.438Z,4.22
2022-10-14T12:28:09.750Z,4.13
2022-10-14T12:30:36.037Z,5.00
2022-10-14T12:33:09.718Z,3.20
2022-10-14T12:35:47.095Z,4.38
2022-10-14T12:38:13.676Z,4.82
2022-10-14T12:40:40.418Z,3.70
2022-10-14T12:43:17.956Z,4.05
2022-10-14T12:45:56.189Z,3.38
2022-10-14T12:48:23.668Z,3.72
2022-10-14T12:50:57.952Z,4.82
2022-10-14T12:53:29.492Z,3.95
2022-10-14T12:56:00.506Z,3.63
2022-10-14T12:58:51.463Z,3.92
2022-10-14T13:01:18.931Z,3.95
2022-10-14T13:03:56.207Z,3.72
2022-10-14T13:06:27.251Z,4.13
2022-10-14T13:09:11.927Z,3.78
2022-10-14T13:11:58.451Z,4.30
2022-10-14T13:14:29.898Z,3.20
2022-10-14T13:16:59.987Z,3.10
2022-10-14T13:19:32.355Z,4.30
2022-10-14T13:21:59.566Z,3.78
2022-10-14T13:24:27.875Z,2.95
2022-10-14T13:26:54.110Z,5.28
2022-10-14T13:29:20.357Z,3.88
2022-10-14T13:32:07.283Z,2.58
2022-10-14T13:34:36.284Z,3.38
2022-10-14T13:37:11.601Z,3.85
2022-10-14T13:39:38.027Z,3.37
2022-10-14T13:42:04.435Z,2.65
2022-10-14T13:44:31.023Z,4.15
2022-10-14T13:46:57.382Z,4.10
2022-10-14T13:49:30.370Z,3.05
2022-10-14T13:51:59.428Z,3.15
2022-10-14T13:54:27.606Z,3.85
2022-10-14T14:02:38.390Z,3.15
2022-10-14T14:05:05.405Z,2.42
2022-10-14T14:08:08.095Z,4.10
2022-10-14T14:10:23.466Z,4.45
2022-10-14T14:12:50.673Z,3.28
2022-10-14T14:15:19.560Z,3.22
2022-10-14T14:17:45.849Z,4.15
2022-10-14T14:20:12.435Z,2.90
2022-10-14T14:22:42.514Z,4.30
2022-10-14T14:25:36.666Z,4.97
2022-10-14T14:28:06.559Z,3.08
2022-10-14T14:30:34.343Z,2.78
2022-10-14T14:33:02.470Z,2.35
2022-10-14T14:35:28.933Z,2.38
2022-10-14T14:37:56.505Z,3.05
2022-10-14T14:40:27.588Z,3.28
2022-10-14T14:42:56.131Z,3.00
2022-10-14T14:45:26.656Z,2.70
2022-10-14T14:47:57.743Z,2.28
2022-10-14T14:50:30.904Z,2.55
2022-10-14T14:53:00.723Z,3.72
2022-10-14T14:55:34.348Z,3.45
2022-10-14T14:58:02.365Z,2.03
2022-10-14T15:00:30.732Z,2.80
2022-10-14T15:03:01.462Z,3.03
2022-10-14T15:05:27.904Z,3.42
2022-10-14T15:07:54.305Z,4.25
2022-10-14T15:10:26.220Z,3.92
2022-10-14T15:12:54.069Z,3.25
2022-10-14T15:15:27.908Z,4.88
2022-10-14T15:18:15.025Z,4.03
2022-10-14T15:20:42.312Z,3.13
2022-10-14T15:23:27.545Z,4.30
2022-10-14T15:25:58.448Z,4.13
2022-10-14T15:28:32.338Z,2.80
2022-10-14T15:31:03.048Z,3.55
2022-10-14T15:33:31.896Z,4.03
2022-10-14T15:35:59.774Z,4.72
2022-10-14T15:38:26.655Z,3.45
2022-10-14T15:40:53.167Z,3.10
2022-10-14T15:43:23.884Z,2.63
2022-10-14T15:46:17.073Z,3.22
2022-10-14T15:48:47.616Z,2.67
2022-10-14T15:51:15.702Z,2.35
2022-10-14T15:53:42.295Z,3.28
2022-10-14T15:56:10.250Z,3.75
2022-10-14T15:58:36.836Z,3.80
2022-10-14T16:01:04.209Z,4.95
2022-10-14T16:03:34.574Z,4.40
2022-10-14T16:08:29.141Z,3.83
2022-10-14T16:10:55.553Z,4.72
2022-10-14T16:13:22.375Z,4.90
2022-10-14T16:15:56.223Z,6.07
2022-10-14T16:21:13.884Z,3.38
2022-10-14T16:23:40.155Z,3.63
2022-10-14T16:26:06.554Z,5.80
2022-10-14T16:28:32.881Z,4.75
2022-10-14T16:30:59.254Z,3.60
2022-10-14T16:33:25.632Z,6.32
2022-10-14T16:35:53.222Z,4.78
2022-10-14T16:38:20.018Z,5.47
2022-10-14T16:40:53.640Z,4.57
2022-10-14T16:43:19.951Z,6.43
2022-10-14T16:45:46.223Z,4.38
2022-10-14T16:48:12.558Z,5.00
2022-10-14T16:50:38.825Z,4.35
2022-10-14T16:53:23.813Z,6.53
2022-10-14T16:55:50.088Z,6.85
2022-10-14T16:58:16.386Z,8.23
2022-10-14T17:00:42.630Z,15.35
2022-10-14T17:03:09.140Z,7.55
2022-10-14T17:05:35.423Z,9.40
2022-10-14T17:08:02.077Z,8.63
2022-10-14T17:10:28.366Z,9.40
2022-10-14T17:12:55.337Z,6.32
2022-10-14T17:15:22.449Z,9.80
2022-10-14T17:17:48.721Z,6.60
2022-10-14T17:20:15.223Z,8.57
2022-10-14T17:22:43.034Z,7.50
2022-10-14T17:25:12.202Z,7.32
2022-10-14T17:27:38.506Z,8.70
2022-10-14T17:30:05.096Z,8.60
2022-10-14T17:32:31.355Z,8.32
2022-10-14T17:34:57.633Z,8.90
2022-10-14T17:37:23.855Z,10.45
2022-10-14T17:39:50.188Z,10.23
2022-10-14T17:42:16.431Z,8.98
2022-10-14T17:44:43.952Z,7.93
2022-10-14T17:47:10.423Z,11.00
2022-10-14T17:49:37.326Z,9.85
2022-10-14T17:52:04.475Z,10.65
2022-10-14T17:54:30.775Z,10.55
2022-10-14T17:56:57.026Z,10.68
2022-10-14T17:59:23.772Z,9.77
2022-10-14T18:02:05.509Z,9.63
2022-10-14T18:04:33.020Z,10.88
2022-10-14T18:06:59.558Z,10.65
2022-10-14T18:09:25.844Z,11.38
2022-10-14T18:12:09.283Z,10.18
2022-10-14T18:14:36.351Z,8.57
2022-10-14T18:17:02.810Z,8.90
2022-10-14T18:19:29.121Z,10.00
2022-10-14T18:21:55.574Z,8.30
2022-10-14T18:24:22.232Z,8.50
2022-10-14T18:26:51.885Z,11.27
2022-10-14T18:29:18.177Z,10.63
2022-10-14T18:31:44.565Z,10.57
2022-10-14T18:34:11.569Z,9.30
2022-10-14T18:36:38.092Z,9.65
2022-10-14T18:39:06.643Z,9.75
2022-10-14T18:41:33.326Z,9.93
2022-10-14T18:44:00.887Z,9.40
2022-10-14T18:46:28.732Z,8.32
2022-10-14T18:48:56.436Z,8.10
2022-10-14T18:51:25.711Z,11.52
2022-10-14T18:53:53.302Z,8.75
2022-10-14T18:56:20.760Z,10.02
2022-10-14T18:58:48.398Z,8.52
2022-10-14T19:01:15.636Z,10.98
2022-10-14T19:03:42.855Z,10.23
2022-10-14T19:06:09.939Z,8.48
2022-10-14T19:08:37.454Z,10.15
2022-10-14T19:11:05.166Z,7.65
2022-10-14T19:13:31.632Z,10.15
2022-10-14T19:16:02.210Z,8.23
2022-10-14T19:18:28.754Z,10.73
2022-10-14T19:20:57.624Z,7.97
2022-10-14T19:23:24.744Z,15.35
2022-10-14T19:25:50.970Z,9.80
2022-10-14T19:28:18.162Z,8.35
2022-10-14T19:30:44.460Z,12.32
2022-10-14T19:33:10.777Z,9.45
2022-10-14T19:35:37.055Z,8.88
2022-10-14T19:38:03.347Z,10.32
2022-10-14T19:40:29.687Z,9.10
2022-10-14T19:42:55.958Z,11.27
2022-10-14T19:45:22.171Z,9.02
2022-10-14T19:47:48.433Z,8.32
2022-10-14T19:50:14.710Z,10.68
2022-10-14T19:52:40.937Z,7.18
2022-10-14T19:55:07.510Z,7.75
2022-10-14T19:57:33.820Z,9.38
2022-10-14T20:00:00.146Z,8.90
2022-10-14T20:02:26.592Z,10.32
2022-10-14T20:04:52.863Z,12.55
2022-10-14T20:07:19.149Z,7.13
2022-10-14T20:09:45.633Z,6.65
2022-10-14T20:12:11.871Z,6.93
2022-10-14T20:14:38.141Z,6.45
2022-10-14T20:17:04.676Z,9.98
2022-10-14T20:19:31.019Z,9.27
2022-10-14T20:21:57.369Z,7.63
2022-10-14T20:24:23.616Z,7.90
2022-10-14T20:26:49.925Z,9.43
2022-10-14T20:29:16.308Z,7.72
2022-10-14T20:31:42.529Z,9.82
2022-10-14T20:34:10.381Z,6.55
2022-10-14T20:36:37.578Z,7.13
2022-10-14T20:39:03.820Z,9.07
2022-10-14T20:41:30.063Z,5.32
2022-10-14T20:43:57.173Z,6.78
2022-10-14T20:46:24.742Z,7.10
2022-10-14T20:48:55.050Z,6.35
2022-10-14T20:51:22.591Z,6.95
2022-10-14T20:53:48.818Z,6.13
2022-10-14T20:56:15.122Z,6.00
2022-10-14T20:58:41.955Z,7.28
2022-10-14T21:01:09.608Z,6.80
2022-10-14T21:03:35.941Z,7.53
2022-10-14T21:06:06.353Z,7.60
2022-10-14T21:08:32.713Z,6.78
2022-10-14T21:11:02.434Z,7.38
2022-10-14T21:13:29.220Z,6.50
2022-10-14T21:15:55.823Z,7.18
2022-10-14T21:18:22.918Z,7.32
2022-10-14T21:20:49.471Z,6.30
2022-10-14T21:23:15.973Z,6.95
2022-10-14T21:25:42.391Z,6.97
2022-10-14T21:28:08.660Z,6.05
2022-10-14T21:30:34.934Z,7.45
2022-10-14T21:33:01.180Z,5.90
2022-10-14T21:35:27.466Z,8.38
2022-10-14T21:37:53.714Z,6.82
2022-10-14T21:40:19.981Z,6.43
2022-10-14T21:42:46.338Z,7.43
2022-10-14T21:45:12.572Z,6.50
2022-10-14T21:47:38.858Z,5.95
2022-10-14T21:50:05.264Z,5.97
2022-10-14T21:52:31.488Z,5.72
2022-10-14T21:54:57.984Z,5.82
2022-10-14T21:57:24.637Z,8.02
2022-10-14T21:59:51.318Z,5.80
2022-10-14T22:02:17.593Z,9.43
2022-10-14T22:04:43.837Z,5.40
2022-10-14T22:07:10.555Z,6.07
2022-10-14T22:09:37.060Z,5.82
2022-10-14T22:12:03.592Z,7.05
2022-10-14T22:14:29.849Z,7.43
2022-10-14T22:16:56.108Z,6.43
2022-10-14T22:19:22.579Z,6.43
2022-10-14T22:21:49.759Z,5.55
2022-10-14T22:24:16.006Z,7.30
2022-10-14T22:26:42.398Z,6.88
2022-10-14T22:29:13.616Z,5.53
2022-10-14T22:31:39.899Z,6.20
2022-10-14T22:34:06.834Z,6.53
2022-10-14T22:36:33.730Z,5.78
2022-10-14T22:39:01.139Z,7.43
2022-10-14T22:41:32.383Z,6.22
2022-10-14T22:44:01.809Z,6.45
2022-10-14T22:46:29.402Z,6.15
2022-10-14T22:48:56.877Z,5.03
2022-10-14T22:51:24.640Z,6.35
2022-10-14T22:53:51.202Z,5.22
2022-10-14T22:56:18.913Z,6.28
2022-10-14T22:58:45.211Z,6.85
2022-10-14T23:01:13.416Z,6.80
2022-10-14T23:03:40.245Z,5.95
2022-10-14T23:06:07.523Z,6.10
2022-10-14T23:08:34.275Z,6.72
2022-10-14T23:11:01.228Z,5.30
2022-10-14T23:13:27.690Z,6.43
2022-10-14T23:16:05.340Z,6.75
2022-10-14T23:18:33.018Z,5.55
2022-10-14T23:20:59.401Z,5.70
2022-10-14T23:23:25.685Z,5.25
2022-10-14T23:25:52.216Z,5.97
2022-10-14T23:28:18.738Z,5.40
2022-10-14T23:30:45.074Z,5.13
2022-10-14T23:33:11.797Z,4.80
2022-10-14T23:35:38.811Z,6.07
2022-10-14T23:38:05.160Z,4.25
2022-10-14T23:40:31.516Z,6.18
2022-10-14T23:42:57.829Z,5.60
2022-10-14T23:45:24.060Z,5.97
2022-10-14T23:47:50.322Z,7.00
2022-10-14T23:50:16.555Z,7.13
2022-10-14T23:52:42.797Z,5.68
2022-10-14T23:55:09.271Z,5.35
2022-10-14T23:57:35.507Z,7.13
